Time;durP1;ratioP1;P1;durP2;ratioP2;P2;SDS_P1;SDS_P2;PMS_P1;PMS_P2;Temp;Humidity;BMP_temperature;BMP_pressure;BME280_temperature;BME280_humidity;BME280_pressure;Samples;Min_cycle;Max_cycle;Signal;HPM_P1;HPM_P2
2021/01/24 00:00:19;;;;;;;25.90;8.48;;;;;;;7.72;100.00;100218.08;1761367;81;21203;-58
2021/01/24 00:02:46;;;;;;;29.52;8.08;;;;;;;7.76;100.00;100219.31;1757203;81;21060;-58
2021/01/24 00:05:14;;;;;;;23.57;7.42;;;;;;;7.77;100.00;100218.39;1757295;81;21738;-58
2021/01/24 00:07:41;;;;;;;24.75;7.33;;;;;;;7.79;100.00;100221.88;1757223;81;21196;-58
2021/01/24 00:10:12;;;;;;;21.45;7.05;;;;;;;7.81;100.00;100216.02;1757213;81;21068;-58
2021/01/24 00:12:40;;;;;;;23.90;7.12;;;;;;;7.86;100.00;100216.77;1757113;81;21548;-58
2021/01/24 00:15:09;;;;;;;20.15;6.97;;;;;;;7.88;100.00;100225.60;1757162;81;21116;-58
2021/01/24 00:17:36;;;;;;;20.10;7.95;;;;;;;7.91;100.00;100214.82;1757311;81;21068;-58
2021/01/24 00:20:08;;;;;;;25.02;8.90;;;;;;;7.91;100.00;100217.48;1757348;81;21139;-58
2021/01/24 00:22:37;;;;;;;20.85;8.43;;;;;;;7.92;100.00;100217.91;1757286;81;20965;-58
2021/01/24 00:25:06;;;;;;;23.42;8.38;;;;;;;7.95;100.00;100221.80;1757277;81;21072;-58
2021/01/24 00:27:34;;;;;;;27.37;7.75;;;;;;;7.96;100.00;100221.35;1757342;81;21065;-58
2021/01/24 00:30:04;;;;;;;20.20;7.17;;;;;;;7.95;100.00;100228.47;1757330;81;21124;-58
2021/01/24 00:32:32;;;;;;;30.45;7.83;;;;;;;7.97;100.00;100221.28;1757424;81;21502;-57
2021/01/24 00:35:00;;;;;;;32.03;7.20;;;;;;;7.98;100.00;100219.50;1757284;81;21171;-58
2021/01/24 00:37:29;;;;;;;25.20;6.72;;;;;;;7.99;99.96;100223.92;1755948;81;21158;-58
2021/01/24 00:39:57;;;;;;;28.70;7.60;;;;;;;7.98;99.86;100226.17;1723769;83;21157;-58
2021/01/24 00:42:24;;;;;;;22.55;7.60;;;;;;;7.98;99.87;100217.69;1753852;81;21110;-57
2021/01/24 00:44:52;;;;;;;33.78;8.25;;;;;;;8.01;99.83;100210.91;1695250;83;21623;-58
2021/01/24 00:47:20;;;;;;;21.60;7.00;;;;;;;8.00;99.71;100209.16;1753756;81;21102;-58
2021/01/24 00:49:48;;;;;;;24.40;6.72;;;;;;;8.01;99.60;100211.39;1723921;83;21133;-57
2021/01/24 00:52:15;;;;;;;28.12;6.95;;;;;;;8.00;99.54;100211.83;1753665;81;21071;-59
2021/01/24 00:54:43;;;;;;;26.33;6.55;;;;;;;7.99;99.49;100202.08;1695326;83;21094;-58
2021/01/24 00:57:11;;;;;;;18.23;6.60;;;;;;;7.99;99.46;100206.09;1753797;81;21394;-57
2021/01/24 00:59:38;;;;;;;19.57;7.47;;;;;;;8.00;99.60;100195.81;1723783;83;21145;-58
2021/01/24 01:02:06;;;;;;;20.43;7.78;;;;;;;8.01;99.46;100199.38;1728186;81;21067;-57
2021/01/24 01:04:34;;;;;;;23.92;6.95;;;;;;;8.00;99.50;100199.83;1724638;83;21072;-57
2021/01/24 01:07:02;;;;;;;26.40;6.60;;;;;;;8.02;99.40;100199.31;1695818;84;21067;-58
2021/01/24 01:09:30;;;;;;;25.00;6.75;;;;;;;8.01;99.23;100189.55;1724578;83;21153;-57
2021/01/24 01:11:58;;;;;;;18.85;6.50;;;;;;;8.00;99.16;100193.15;1695676;84;21182;-58
2021/01/24 01:14:25;;;;;;;20.77;6.80;;;;;;;7.98;99.20;100181.66;1724596;83;21534;-59
2021/01/24 01:16:53;;;;;;;23.50;7.35;;;;;;;7.98;99.14;100188.33;1695852;84;21083;-59
2021/01/24 01:19:20;;;;;;;22.65;6.87;;;;;;;7.98;99.08;100173.64;1724557;83;21110;-58
2021/01/24 01:21:48;;;;;;;24.95;6.75;;;;;;;7.96;98.99;100174.64;1695833;84;21366;-58
2021/01/24 01:24:16;;;;;;;22.17;5.87;;;;;;;7.93;98.99;100187.61;1724527;83;21087;-58
2021/01/24 01:26:43;;;;;;;24.30;5.97;;;;;;;7.91;99.10;100153.43;1695875;84;21087;-57
2021/01/24 01:29:11;;;;;;;25.15;6.78;;;;;;;7.92;99.16;100162.30;1724521;83;21146;-57
2021/01/24 01:31:38;;;;;;;23.60;6.90;;;;;;;7.91;99.16;100165.44;1695896;84;21111;-57
2021/01/24 01:34:06;;;;;;;24.45;7.03;;;;;;;7.92;99.13;100162.30;1724524;83;21480;-57
2021/01/24 01:36:34;;;;;;;22.80;6.35;;;;;;;7.89;99.07;100165.95;1695833;84;21099;-57
2021/01/24 01:39:02;;;;;;;24.15;6.92;;;;;;;7.88;99.17;100155.72;1726097;83;21148;-57
2021/01/24 01:41:31;;;;;;;26.65;6.58;;;;;;;7.89;99.12;100160.62;1726254;83;22261;-57
2021/01/24 01:43:58;;;;;;;16.77;5.80;;;;;;;7.89;99.11;100163.29;1726170;83;21165;-58
2021/01/24 01:46:27;;;;;;;21.37;6.42;;;;;;;7.88;99.09;100158.87;1726121;83;21372;-58
2021/01/24 01:48:56;;;;;;;23.02;6.25;;;;;;;7.88;99.08;100156.20;1726160;83;21572;-58
2021/01/24 01:51:25;;;;;;;31.37;7.30;;;;;;;7.87;99.12;100154.46;1726095;83;21089;-58
2021/01/24 01:53:56;;;;;;;31.20;6.83;;;;;;;7.88;99.15;100153.53;1726201;83;21541;-58
2021/01/24 01:56:23;;;;;;;19.05;6.05;;;;;;;7.88;99.13;100158.87;1726156;83;21064;-58
2021/01/24 01:58:50;;;;;;;27.00;6.37;;;;;;;7.88;99.11;100146.38;1726126;82;21206;-58
2021/01/24 02:01:31;;;;;;;29.20;5.80;;;;;;;7.88;99.14;100146.86;1729627;82;21173;-58
2021/01/24 02:04:20;;;;;;;19.05;5.70;;;;;;;7.90;99.16;100142.34;1734970;81;21122;-58
2021/01/24 02:06:54;;;;;;;26.05;6.85;;;;;;;7.91;98.99;100134.75;1734445;82;21194;-58
2021/01/24 02:09:30;;;;;;;25.70;7.00;;;;;;;7.91;99.03;100136.08;1735121;82;21083;-58
2021/01/24 02:12:16;;;;;;;21.10;6.60;;;;;;;7.92;99.11;100125.81;1734989;82;21376;-58
2021/01/24 02:15:06;;;;;;;22.67;6.42;;;;;;;7.93;98.97;100121.33;1734895;82;21147;-57
2021/01/24 02:17:41;;;;;;;24.43;6.17;;;;;;;7.91;98.89;100133.41;1734964;81;21171;-58
2021/01/24 02:20:43;;;;;;;24.02;6.30;;;;;;;7.91;98.95;100128.08;1735014;82;21106;-58
2021/01/24 02:23:13;;;;;;;21.57;7.12;;;;;;;7.92;99.01;100125.81;1734913;82;21126;-58
2021/01/24 02:25:47;;;;;;;31.85;8.20;;;;;;;7.93;98.99;100126.22;1734447;82;22286;-57
2021/01/24 02:28:29;;;;;;;21.48;7.10;;;;;;;7.94;98.88;100126.62;1734887;82;21091;-57
2021/01/24 02:30:57;;;;;;;26.27;6.42;;;;;;;7.93;98.67;100130.23;1735015;82;21158;-58
2021/01/24 02:33:27;;;;;;;29.60;6.58;;;;;;;7.91;98.58;100124.07;1734861;82;21087;-57
2021/01/24 02:35:58;;;;;;;21.57;6.42;;;;;;;7.88;98.67;100108.16;1734978;81;21059;-57
2021/01/24 02:38:26;;;;;;;18.50;5.78;;;;;;;7.91;98.75;100120.06;1725881;82;21361;-58
2021/01/24 02:40:54;;;;;;;26.33;7.15;;;;;;;7.93;98.59;100111.54;1722106;83;21067;-57
2021/01/24 02:43:21;;;;;;;21.73;7.55;;;;;;;7.95;98.42;100115.02;1722257;83;21158;-58
2021/01/24 02:45:51;;;;;;;16.30;6.30;;;;;;;7.96;98.29;100115.91;1722122;83;21151;-57
2021/01/24 02:48:18;;;;;;;18.30;6.15;;;;;;;7.96;98.11;100111.43;1722287;83;21190;-57
2021/01/24 02:50:47;;;;;;;24.87;5.95;;;;;;;7.99;97.94;100115.32;1722209;83;21368;-58
2021/01/24 02:53:15;;;;;;;18.82;5.90;;;;;;;8.00;97.72;100097.05;1722193;83;21210;-57
2021/01/24 02:55:43;;;;;;;23.07;6.53;;;;;;;8.03;97.49;100096.94;1722189;83;21198;-58
2021/01/24 02:58:10;;;;;;;24.63;7.37;;;;;;;8.05;97.27;100094.22;1695691;83;21138;-58
2021/01/24 03:00:38;;;;;;;22.67;6.75;;;;;;;8.08;97.00;100093.26;1722160;83;21178;-57
2021/01/24 03:03:07;;;;;;;23.05;6.80;;;;;;;8.11;96.75;100079.80;1722189;83;21575;-57
2021/01/24 03:05:35;;;;;;;21.55;6.40;;;;;;;8.14;96.55;100090.36;1722208;83;21090;-58
2021/01/24 03:08:03;;;;;;;26.85;7.12;;;;;;;8.16;96.37;100091.17;1722164;83;21075;-57
2021/01/24 03:10:31;;;;;;;21.25;5.78;;;;;;;8.21;96.09;100090.54;1722212;83;21162;-57
2021/01/24 03:13:15;;;;;;;20.65;5.78;;;;;;;8.24;95.65;100091.77;1695636;83;21139;-58
2021/01/24 03:15:43;;;;;;;17.10;6.13;;;;;;;8.26;95.26;100075.22;1722514;82;21333;-57
2021/01/24 03:18:16;;;;;;;23.87;6.67;;;;;;;8.29;94.84;100087.15;1695677;83;21720;-57
2021/01/24 03:20:43;;;;;;;19.42;6.85;;;;;;;8.30;94.55;100096.02;1721220;83;21090;-58
2021/01/24 03:23:11;;;;;;;21.57;5.62;;;;;;;8.30;94.27;100086.22;1722136;83;21162;-57
2021/01/24 03:25:40;;;;;;;17.65;6.30;;;;;;;8.29;93.98;100080.47;1722215;83;21573;-57
2021/01/24 03:28:07;;;;;;;28.12;6.75;;;;;;;8.28;93.86;100081.85;1722184;83;21333;-58
2021/01/24 03:30:35;;;;;;;21.05;6.15;;;;;;;8.27;93.73;100076.95;1722147;83;21089;-58
2021/01/24 03:33:03;;;;;;;22.70;7.58;;;;;;;8.28;93.57;100080.03;1722182;83;21063;-58
2021/01/24 03:35:31;;;;;;;24.60;6.62;;;;;;;8.27;93.42;100084.97;1722100;83;21154;-58
2021/01/24 03:38:00;;;;;;;20.88;5.92;;;;;;;8.26;93.35;100073.88;1738433;81;21114;-58
2021/01/24 03:40:27;;;;;;;16.95;5.37;;;;;;;8.26;93.23;100080.56;1752077;81;21677;-57
2021/01/24 03:42:55;;;;;;;23.32;6.60;;;;;;;8.26;93.06;100068.54;1752093;81;21075;-58
2021/01/24 03:45:24;;;;;;;25.40;7.97;;;;;;;8.28;93.01;100072.02;1752164;81;21597;-57
2021/01/24 03:47:53;;;;;;;23.73;6.95;;;;;;;8.29;92.92;100080.47;1752122;81;21154;-57
2021/01/24 03:50:21;;;;;;;22.87;6.28;;;;;;;8.31;92.79;100087.97;1752196;81;21122;-57
2021/01/24 03:52:49;;;;;;;18.15;6.42;;;;;;;8.31;92.63;100087.97;1752203;81;21368;-57
2021/01/24 03:55:17;;;;;;;21.50;6.08;;;;;;;8.30;92.52;100082.66;1752230;81;21091;-57
2021/01/24 03:57:44;;;;;;;29.63;7.00;;;;;;;8.29;92.43;100087.15;1752224;81;21087;-58
2021/01/24 04:00:13;;;;;;;17.57;6.72;;;;;;;8.30;92.37;100087.55;1724974;81;21103;-58
2021/01/24 04:02:42;;;;;;;24.50;6.47;;;;;;;8.28;92.32;100081.37;1752312;81;21056;-57
2021/01/24 04:05:11;;;;;;;24.63;6.50;;;;;;;8.27;92.26;100083.63;1752602;81;21359;-59
2021/01/24 04:07:38;;;;;;;18.45;6.30;;;;;;;8.25;92.23;100079.30;1752358;81;21170;-57
2021/01/24 04:10:07;;;;;;;20.15;6.83;;;;;;;8.24;92.37;100082.41;1752589;81;20945;-58
2021/01/24 04:12:35;;;;;;;19.42;6.47;;;;;;;8.25;92.41;100076.14;1752429;81;21079;-57
2021/01/24 04:15:05;;;;;;;23.27;6.85;;;;;;;8.25;92.43;100085.97;1752592;81;21067;-58
2021/01/24 04:17:33;;;;;;;25.48;6.80;;;;;;;8.25;92.40;100084.16;1752608;81;22357;-57
2021/01/24 04:20:01;;;;;;;19.87;5.55;;;;;;;8.23;92.46;100082.00;1752577;81;21122;-58
2021/01/24 04:22:28;;;;;;;18.92;6.12;;;;;;;8.24;92.55;100083.75;1752586;81;21158;-58
2021/01/24 04:24:55;;;;;;;30.72;7.42;;;;;;;8.26;92.45;100076.55;1752596;81;21442;-58
2021/01/24 04:27:23;;;;;;;24.85;8.15;;;;;;;8.25;92.38;100086.83;1752620;81;21505;-57
2021/01/24 04:29:50;;;;;;;18.42;6.25;;;;;;;8.26;92.39;100073.02;1752586;81;21472;-57
2021/01/24 04:32:18;;;;;;;27.37;6.37;;;;;;;8.26;92.44;100070.36;1752558;81;21605;-57
2021/01/24 04:34:46;;;;;;;26.27;6.83;;;;;;;8.27;92.62;100082.30;1752440;81;21154;-58
2021/01/24 04:37:15;;;;;;;25.65;7.45;;;;;;;8.27;92.64;100057.41;1745868;81;21154;-57
2021/01/24 04:39:43;;;;;;;17.62;6.50;;;;;;;8.28;92.63;100070.69;1722318;83;21173;-58
2021/01/24 04:42:10;;;;;;;25.12;6.70;;;;;;;8.27;92.61;100074.28;1722568;83;21350;-58
2021/01/24 04:44:38;;;;;;;16.02;5.05;;;;;;;8.24;92.68;100085.56;1722463;83;21185;-57
2021/01/24 04:47:06;;;;;;;25.45;6.35;;;;;;;8.21;92.79;100084.34;1722606;83;21066;-58
2021/01/24 04:49:33;;;;;;;27.55;6.83;;;;;;;8.17;92.95;100070.22;1695975;83;21087;-58
2021/01/24 04:52:01;;;;;;;33.40;6.87;;;;;;;8.17;93.14;100074.22;1722593;83;21171;-58
2021/01/24 04:54:29;;;;;;;29.27;7.42;;;;;;;8.14;93.22;100081.02;1722546;83;21676;-58
2021/01/24 04:56:57;;;;;;;24.05;6.03;;;;;;;8.11;93.28;100078.45;1722454;83;21095;-58
2021/01/24 04:59:24;;;;;;;24.27;6.37;;;;;;;8.06;93.46;100076.39;1722579;83;21062;-58
2021/01/24 05:01:52;;;;;;;27.93;6.60;;;;;;;8.03;93.68;100084.06;1717377;83;21110;-57
2021/01/24 05:04:20;;;;;;;31.45;6.87;;;;;;;8.00;93.88;100082.36;1698875;84;21154;-57
2021/01/24 05:06:47;;;;;;;21.27;7.17;;;;;;;7.97;94.04;100078.47;1648889;84;21229;-57
2021/01/24 05:09:17;;;;;;;20.65;6.35;;;;;;;7.94;94.25;100061.68;1698852;84;21090;-58
2021/01/24 05:11:51;;;;;;;20.10;6.20;;;;;;;7.93;94.44;100079.51;1698822;84;21080;-57
2021/01/24 05:14:22;;;;;;;20.37;5.72;;;;;;;7.89;94.61;100076.55;1698924;84;21181;-58
2021/01/24 05:16:52;;;;;;;21.73;5.92;;;;;;;7.87;94.79;100077.06;1698837;84;21145;-57
2021/01/24 05:19:21;;;;;;;20.15;6.53;;;;;;;7.86;95.08;100076.66;1671565;84;21358;-57
2021/01/24 05:21:52;;;;;;;24.98;7.03;;;;;;;7.87;95.39;100067.72;1698728;84;21149;-58
2021/01/24 05:24:21;;;;;;;22.00;6.22;;;;;;;7.86;95.43;100073.50;1650168;84;21161;-58
2021/01/24 05:26:49;;;;;;;32.55;6.72;;;;;;;7.85;95.66;100073.58;1698830;84;21185;-58
2021/01/24 05:29:26;;;;;;;20.32;5.47;;;;;;;7.84;95.86;100078.03;1698844;84;21086;-58
2021/01/24 05:31:54;;;;;;;21.30;6.33;;;;;;;7.86;95.99;100060.16;1698885;84;21220;-58
2021/01/24 05:34:26;;;;;;;24.77;6.67;;;;;;;7.86;96.05;100069.50;1698671;84;21090;-58
2021/01/24 05:36:54;;;;;;;21.30;7.15;;;;;;;7.87;96.17;100081.06;1701170;83;21086;-58
2021/01/24 05:39:22;;;;;;;28.45;6.58;;;;;;;7.87;96.18;100083.25;1726368;83;21137;-58
2021/01/24 05:41:51;;;;;;;23.62;6.42;;;;;;;7.87;96.16;100078.40;1720738;83;21240;-58
2021/01/24 05:44:20;;;;;;;22.22;5.75;;;;;;;7.85;96.17;100078.91;1720710;83;21343;-58
2021/01/24 05:46:47;;;;;;;23.40;6.12;;;;;;;7.85;96.24;100077.58;1720640;83;21070;-58
2021/01/24 05:49:25;;;;;;;26.82;6.30;;;;;;;7.86;96.24;100077.98;1720714;83;21075;-58
2021/01/24 05:52:07;;;;;;;24.50;6.97;;;;;;;7.85;96.18;100074.43;1720207;83;21111;-58
2021/01/24 05:54:45;;;;;;;28.35;6.03;;;;;;;7.83;96.13;100091.41;1720814;83;21539;-58
2021/01/24 05:57:16;;;;;;;21.85;5.83;;;;;;;7.80;96.12;100091.52;1720716;83;22335;-58
2021/01/24 05:59:54;;;;;;;21.12;6.03;;;;;;;7.76;96.10;100096.55;1720633;83;21146;-58
2021/01/24 06:02:24;;;;;;;21.37;5.90;;;;;;;7.69;96.26;100092.77;1725846;81;20992;-57
2021/01/24 06:04:51;;;;;;;22.93;6.37;;;;;;;7.66;96.43;100088.88;1695729;84;21185;-57
2021/01/24 06:07:19;;;;;;;29.18;7.70;;;;;;;7.65;96.75;100093.80;1724607;83;21122;-57
2021/01/24 06:09:47;;;;;;;23.57;6.15;;;;;;;7.67;96.95;100092.40;1695786;83;21707;-58
2021/01/24 06:12:18;;;;;;;24.63;6.87;;;;;;;7.67;96.90;100093.28;1724509;83;21103;-58
2021/01/24 06:14:49;;;;;;;19.80;5.75;;;;;;;7.66;96.83;100088.88;1695724;84;20988;-57
2021/01/24 06:17:40;;;;;;;22.67;5.80;;;;;;;7.66;96.81;100083.53;1724666;83;21582;-58
2021/01/24 06:20:09;;;;;;;19.55;6.28;;;;;;;7.65;96.78;100079.58;1695885;84;21400;-57
2021/01/24 06:23:08;;;;;;;22.32;6.33;;;;;;;7.63;96.86;100068.97;1724586;83;21286;-58
2021/01/24 06:25:43;;;;;;;22.10;6.50;;;;;;;7.61;96.95;100069.45;1680057;83;21099;-58
2021/01/24 06:28:17;;;;;;;;;;;;;;;7.62;97.06;100064.53;1727086;82;21154;-58
2021/01/24 06:30:45;;;;;;;27.20;6.60;;;;;;;7.63;97.07;100060.97;1724580;83;20223;-58
2021/01/24 06:33:20;;;;;;;23.92;5.50;;;;;;;7.65;97.13;100067.13;1724523;83;21067;-59
2021/01/24 06:36:00;;;;;;;19.57;6.50;;;;;;;7.68;97.10;100063.01;1695895;83;21142;-57
2021/01/24 06:38:40;;;;;;;19.20;6.78;;;;;;;7.76;97.05;100060.53;1725574;83;21208;-59
2021/01/24 06:41:13;;;;;;;20.92;6.00;;;;;;;7.85;96.85;100068.23;1698090;83;21587;-58
2021/01/24 06:43:47;;;;;;;19.40;5.62;;;;;;;7.92;96.51;100081.77;1725836;83;37938;-58
2021/01/24 06:46:32;;;;;;;20.55;5.80;;;;;;;7.98;96.13;100082.88;1726175;83;21492;-58
2021/01/24 06:49:00;;;;;;;20.45;6.25;;;;;;;8.02;95.62;100083.18;1725087;83;21374;-58
2021/01/24 06:51:36;;;;;;;25.35;7.53;;;;;;;8.06;95.34;100077.72;1725994;83;21072;-58
2021/01/24 06:54:07;;;;;;;21.73;6.15;;;;;;;8.11;95.18;100084.66;1726046;83;21124;-59
2021/01/24 06:56:44;;;;;;;20.70;6.05;;;;;;;8.16;94.94;100085.84;1726141;83;21057;-57
2021/01/24 06:59:12;;;;;;;22.17;5.12;;;;;;;8.20;94.72;100091.47;1726074;83;21131;-57
2021/01/24 07:01:42;;;;;;;19.12;6.12;;;;;;;8.25;94.27;100092.17;1726094;83;21365;-58
2021/01/24 07:04:30;;;;;;;19.95;6.80;;;;;;;8.27;94.08;100099.66;1721251;83;21163;-58
2021/01/24 07:07:13;;;;;;;17.17;5.95;;;;;;;8.33;93.94;100083.03;1721016;83;21605;-58
2021/01/24 07:09:43;;;;;;;30.57;6.42;;;;;;;8.37;93.62;100090.85;1702512;83;21137;-58
2021/01/24 07:12:11;;;;;;;18.82;5.60;;;;;;;8.37;93.26;100092.19;1702915;84;21104;-58
2021/01/24 07:14:45;;;;;;;26.10;7.05;;;;;;;8.41;93.16;100087.61;1702740;84;21383;-58
2021/01/24 07:17:15;;;;;;;21.25;7.12;;;;;;;8.45;92.98;100081.22;1702840;84;21145;-59
2021/01/24 07:19:54;;;;;;;15.83;5.75;;;;;;;8.49;92.69;100086.86;1702781;84;21123;-58
2021/01/24 07:22:23;;;;;;;20.92;6.20;;;;;;;8.52;92.35;100074.78;1702838;84;21571;-58
2021/01/24 07:24:54;;;;;;;24.50;6.40;;;;;;;8.53;92.26;100080.98;1702923;84;21240;-59
2021/01/24 07:27:28;;;;;;;18.50;6.05;;;;;;;8.55;92.17;100078.67;1702926;84;21206;-58
2021/01/24 07:29:56;;;;;;;16.93;6.28;;;;;;;8.60;92.12;100078.02;1702998;84;20978;-58
2021/01/24 07:32:24;;;;;;;21.85;7.15;;;;;;;8.64;91.95;100080.58;1702888;84;21078;-59
2021/01/24 07:34:54;;;;;;;24.60;5.62;;;;;;;8.67;91.88;100083.12;1703000;84;21077;-58
2021/01/24 07:37:22;;;;;;;19.25;5.87;;;;;;;8.69;91.68;100082.60;1705850;83;21544;-58
2021/01/24 07:39:51;;;;;;;29.90;8.15;;;;;;;8.73;91.52;100072.20;1700437;84;21472;-58
2021/01/24 07:42:19;;;;;;;23.55;6.97;;;;;;;8.78;91.38;100090.29;1729554;83;21210;-58
2021/01/24 07:44:47;;;;;;;31.87;7.35;;;;;;;8.81;91.20;100071.91;1700401;83;21062;-59
2021/01/24 07:47:15;;;;;;;33.40;7.97;;;;;;;8.83;91.01;100097.66;1729685;83;21234;-58
2021/01/24 07:49:43;;;;;;;19.20;6.40;;;;;;;8.83;90.80;100094.98;1700311;84;21158;-58
2021/01/24 07:52:11;;;;;;;19.82;6.22;;;;;;;8.83;90.72;100086.97;1729610;83;21381;-58
2021/01/24 07:54:40;;;;;;;19.65;7.10;;;;;;;8.84;90.60;100087.38;1700235;84;21158;-58
2021/01/24 07:57:09;;;;;;;25.65;6.90;;;;;;;8.86;90.66;100092.19;1702088;83;21174;-58
2021/01/24 07:59:36;;;;;;;24.45;7.35;;;;;;;8.90;90.63;100086.27;1638443;84;21106;-58
2021/01/24 08:02:04;;;;;;;16.35;5.55;;;;;;;8.94;90.48;100097.25;1729581;83;21108;-59
2021/01/24 08:04:36;;;;;;;22.15;6.17;;;;;;;8.97;90.31;100100.28;1728616;82;21456;-59
2021/01/24 08:07:08;;;;;;;22.95;7.33;;;;;;;8.98;90.14;100104.21;1731577;82;21503;-58
2021/01/24 08:09:36;;;;;;;27.37;7.05;;;;;;;8.99;89.98;100102.42;1762036;81;21086;-58
2021/01/24 08:12:14;;;;;;;26.70;8.10;;;;;;;8.96;89.86;100091.86;1731614;82;21090;-59
2021/01/24 08:14:42;;;;;;;21.17;6.83;;;;;;;8.91;89.83;100102.72;1761965;81;21118;-58
2021/01/24 08:17:13;;;;;;;20.32;6.33;;;;;;;8.86;89.91;100104.22;1731585;82;21397;-59
2021/01/24 08:19:42;;;;;;;20.43;7.25;;;;;;;8.82;89.99;100104.39;1713718;81;21122;-58
2021/01/24 08:22:11;;;;;;;18.52;7.25;;;;;;;8.78;90.22;100110.34;1731523;82;21134;-58
2021/01/24 08:24:40;;;;;;;23.85;7.37;;;;;;;8.75;90.35;100117.14;1761953;81;21145;-59
2021/01/24 08:27:08;;;;;;;24.72;6.10;;;;;;;8.77;90.55;100113.94;1731675;82;21497;-58
2021/01/24 08:29:37;;;;;;;19.35;7.08;;;;;;;8.77;90.48;100107.70;1761973;81;21549;-58
2021/01/24 08:32:06;;;;;;;19.35;7.92;;;;;;;8.79;90.49;100110.74;1684451;82;21137;-58
2021/01/24 08:34:34;;;;;;;24.92;7.33;;;;;;;8.81;90.56;100114.22;1761960;81;21558;-59
2021/01/24 08:37:04;;;;;;;27.55;7.08;;;;;;;8.83;90.61;100108.35;1733410;82;21201;-59
2021/01/24 08:39:33;;;;;;;16.85;6.53;;;;;;;8.87;90.47;100117.14;1762880;81;21163;-58
2021/01/24 08:42:05;;;;;;;20.92;6.42;;;;;;;8.90;90.46;100117.02;1762985;81;21124;-58
2021/01/24 08:44:33;;;;;;;27.00;7.60;;;;;;;8.95;90.38;100120.83;1762954;81;21138;-58
2021/01/24 08:47:05;;;;;;;28.90;7.95;;;;;;;8.96;90.29;100119.45;1762984;81;21119;-58
2021/01/24 08:49:33;;;;;;;19.92;7.15;;;;;;;8.97;90.08;100114.50;1762952;81;21191;-58
2021/01/24 08:52:03;;;;;;;20.35;6.62;;;;;;;8.95;89.92;100106.13;1763044;81;21187;-58
2021/01/24 08:54:32;;;;;;;26.77;7.45;;;;;;;8.94;89.90;100109.73;1762904;81;21402;-58
2021/01/24 08:57:19;;;;;;;23.73;7.33;;;;;;;8.93;89.76;100107.53;1762890;81;21143;-58
2021/01/24 08:59:57;;;;;;;30.60;8.08;;;;;;;8.90;89.70;100100.97;1763005;81;21087;-58
2021/01/24 09:02:35;;;;;;;22.27;7.20;;;;;;;8.86;89.75;100092.19;1762924;81;21072;-58
2021/01/24 09:05:07;;;;;;;23.32;6.75;;;;;;;8.84;89.94;100098.06;1738802;81;21090;-58
2021/01/24 09:07:47;;;;;;;23.50;6.33;;;;;;;8.82;90.17;100093.25;1738489;82;22269;-58
2021/01/24 09:10:30;;;;;;;26.37;7.72;;;;;;;8.84;90.55;100075.34;1738422;82;21149;-59
2021/01/24 09:12:59;;;;;;;25.92;7.62;;;;;;;8.87;90.83;100087.25;1738468;82;21093;-58
2021/01/24 09:15:29;;;;;;;28.73;7.10;;;;;;;8.91;90.94;100075.09;1738387;82;21196;-58
2021/01/24 09:17:58;;;;;;;22.35;7.28;;;;;;;8.91;91.13;100076.44;1738430;82;21153;-58
2021/01/24 09:20:28;;;;;;;21.33;7.33;;;;;;;8.89;91.36;100064.48;1738387;82;21354;-58
2021/01/24 09:22:55;;;;;;;21.40;7.58;;;;;;;8.90;91.54;100067.56;1738453;82;21081;-59
2021/01/24 09:25:23;;;;;;;22.60;7.80;;;;;;;8.89;91.66;100065.34;1738356;82;21089;-58
2021/01/24 09:27:50;;;;;;;23.47;6.80;;;;;;;8.89;91.82;100074.69;1738415;82;21117;-58
2021/01/24 09:30:20;;;;;;;20.92;7.05;;;;;;;8.88;91.97;100047.55;1738410;82;21152;-59
2021/01/24 09:32:47;;;;;;;23.90;6.87;;;;;;;8.86;92.12;100054.77;1738545;82;22270;-59
2021/01/24 09:35:15;;;;;;;26.55;8.38;;;;;;;8.85;92.41;100047.68;1738276;81;21065;-59
2021/01/24 09:37:43;;;;;;;22.82;7.35;;;;;;;8.86;92.97;100050.76;1723458;82;21115;-59
2021/01/24 09:40:11;;;;;;;27.58;7.95;;;;;;;8.88;93.44;100047.55;1732371;82;21131;-59
2021/01/24 09:42:39;;;;;;;20.72;6.87;;;;;;;8.89;93.66;100046.63;1732086;82;21178;-58
2021/01/24 09:45:08;;;;;;;20.88;6.62;;;;;;;8.86;93.99;100037.39;1732124;82;21496;-59
2021/01/24 09:47:36;;;;;;;17.57;5.87;;;;;;;8.84;94.50;100035.25;1731986;82;21119;-58
2021/01/24 09:50:05;;;;;;;20.88;6.42;;;;;;;8.84;95.11;100023.67;1703246;84;21500;-60
2021/01/24 09:52:33;;;;;;;22.98;6.70;;;;;;;8.85;95.64;100010.26;1732166;82;21646;-59
2021/01/24 09:55:00;;;;;;;25.43;8.08;;;;;;;8.88;96.01;100026.17;1703137;84;21190;-59
2021/01/24 09:57:28;;;;;;;27.62;7.90;;;;;;;8.91;96.13;100035.00;1732014;82;21720;-58
2021/01/24 09:59:56;;;;;;;23.62;6.83;;;;;;;8.87;96.26;100032.45;1703035;84;21150;-58
2021/01/24 10:02:24;;;;;;;23.15;6.45;;;;;;;8.82;96.49;100023.75;1732110;82;21131;-58
2021/01/24 10:04:52;;;;;;;22.50;6.70;;;;;;;8.77;96.80;100016.83;1724506;82;21137;-57
2021/01/24 10:07:19;;;;;;;29.63;6.85;;;;;;;8.70;97.14;100014.86;1731569;82;21126;-57
2021/01/24 10:09:48;;;;;;;25.77;7.20;;;;;;;8.65;97.80;100006.16;1761776;81;21447;-59
2021/01/24 10:12:16;;;;;;;22.10;6.75;;;;;;;8.60;98.17;99992.52;1731557;82;21144;-58
2021/01/24 10:14:43;;;;;;;21.62;6.87;;;;;;;8.56;98.83;100004.71;1761741;81;21148;-58
2021/01/24 10:17:11;;;;;;;25.40;6.80;;;;;;;8.50;99.40;99988.45;1731607;82;21116;-59
2021/01/24 10:19:39;;;;;;;21.37;6.45;;;;;;;8.47;100.00;99983.20;1761768;81;21178;-58
2021/01/24 10:22:07;;;;;;;23.05;6.15;;;;;;;8.43;100.00;99982.46;1731644;82;21394;-58
2021/01/24 10:24:35;;;;;;;23.15;6.75;;;;;;;8.40;100.00;99957.66;1761722;81;21070;-58
2021/01/24 10:27:03;;;;;;;24.52;6.20;;;;;;;8.38;100.00;99970.20;1731632;82;21027;-59
2021/01/24 10:29:32;;;;;;;23.18;6.40;;;;;;;8.34;100.00;99965.91;1758419;81;21142;-58
2021/01/24 10:31:59;;;;;;;23.10;6.80;;;;;;;8.33;100.00;99963.70;1731608;82;21138;-58
2021/01/24 10:34:27;;;;;;;23.83;6.78;;;;;;;8.29;100.00;99965.63;1761805;81;21703;-57
2021/01/24 10:36:55;;;;;;;20.60;6.50;;;;;;;8.26;100.00;99947.03;1732761;82;21074;-58
2021/01/24 10:39:23;;;;;;;17.62;6.30;;;;;;;8.23;100.00;99951.16;1762912;81;21136;-59
2021/01/24 10:41:50;;;;;;;23.67;6.70;;;;;;;8.21;100.00;99942.34;1762887;81;21155;-58
2021/01/24 10:44:17;;;;;;;24.15;6.12;;;;;;;8.21;100.00;99946.83;1762972;81;21055;-59
2021/01/24 10:46:45;;;;;;;19.73;6.33;;;;;;;8.16;100.00;99933.64;1762825;81;21422;-59
2021/01/24 10:49:13;;;;;;;19.95;5.92;;;;;;;8.14;100.00;99932.83;1762874;81;21185;-58
2021/01/24 10:51:40;;;;;;;17.27;5.78;;;;;;;8.13;100.00;99935.09;1763017;81;21119;-58
2021/01/24 10:54:08;;;;;;;18.67;6.17;;;;;;;8.07;100.00;99936.64;1762991;81;21209;-59
2021/01/24 10:56:35;;;;;;;21.30;5.75;;;;;;;8.05;100.00;99917.14;1762976;81;21202;-58
2021/01/24 10:59:03;;;;;;;21.10;5.70;;;;;;;8.01;100.00;99917.74;1762951;81;21195;-58
2021/01/24 11:01:31;;;;;;;17.42;5.22;;;;;;;7.97;100.00;99927.66;1762801;81;21167;-59
2021/01/24 11:03:58;;;;;;;21.25;6.45;;;;;;;7.96;100.00;99919.23;1762175;81;21147;-57
2021/01/24 11:06:26;;;;;;;21.55;6.53;;;;;;;7.94;100.00;99917.55;1760454;81;21116;-59
2021/01/24 11:08:53;;;;;;;21.07;5.45;;;;;;;7.93;100.00;99908.69;1760450;81;21132;-59
2021/01/24 11:11:22;;;;;;;18.05;5.58;;;;;;;7.91;100.00;99911.88;1760460;81;21356;-59
2021/01/24 11:13:50;;;;;;;22.58;6.67;;;;;;;7.92;100.00;99902.94;1760339;81;21144;-59
2021/01/24 11:16:17;;;;;;;18.15;5.90;;;;;;;7.92;100.00;99910.95;1760476;81;21055;-58
2021/01/24 11:18:45;;;;;;;24.20;6.15;;;;;;;7.92;100.00;99898.94;1760392;81;21076;-58
2021/01/24 11:21:13;;;;;;;21.02;6.08;;;;;;;7.91;100.00;99896.31;1760501;81;21135;-59
2021/01/24 11:23:40;;;;;;;18.52;5.83;;;;;;;7.90;100.00;99900.80;1760430;81;22804;-59
2021/01/24 11:26:08;;;;;;;20.85;6.37;;;;;;;7.91;100.00;99900.31;1760430;81;21092;-58
2021/01/24 11:28:35;;;;;;;21.55;6.53;;;;;;;7.91;100.00;99890.98;1760423;81;21088;-58
2021/01/24 11:31:03;;;;;;;20.08;6.25;;;;;;;7.89;100.00;99897.72;1760519;81;21072;-59
2021/01/24 11:33:31;;;;;;;20.82;7.00;;;;;;;7.90;100.00;99882.11;1760411;81;21116;-58
2021/01/24 11:35:59;;;;;;;21.82;5.90;;;;;;;7.93;100.00;99876.66;1760423;81;21425;-59